Terminal Aerodrome Forecast
Issued by NWS

Current Version | Previous Version | Text Only | Print | Product List | Glossary On
Versions: 1 2 3 4 5 6 7 8 9 10 11 12 13 14 15 16 17 18 19
000
FTUS41 KBGM 180500
TAFELM
TAF
KELM 180540Z 1806/1906 26010KT P6SM SCT025 OVC035
      TEMPO 1806/1809 4SM -SN OVC025
     FM181400 29010G18KT P6SM OVC025
     FM190000 29007KT P6SM OVC030=

USA.gov is the U.S. government's official web portal to all federal, state and local government web resources and services.